Time;durP1;ratioP1;P1;durP2;ratioP2;P2;SDS_P1;SDS_P2;PMS_P1;PMS_P2;Temp;Humidity;BMP_temperature;BMP_pressure;BME280_temperature;BME280_humidity;BME280_pressure;Samples;Min_cycle;Max_cycle;Signal;HPM_P1;HPM_P2
2021/06/19 00:01:53;;;;;;;;;;;;;;;30.73;31.08;100963.59;5018255;28;99600;-83
2021/06/19 00:04:21;;;;;;;;;;;;;;;30.68;30.97;100966.03;5014836;28;96988;-83
2021/06/19 00:06:47;;;;;;;;;;;;;;;30.48;32.10;100965.59;5008742;28;96809;-84
2021/06/19 00:09:14;;;;;;;;;;;;;;;30.79;31.77;100962.03;5008949;28;96850;-85
2021/06/19 00:11:41;;;;;;;;;;;;;;;30.41;33.00;100961.03;5008589;28;99413;-84
2021/06/19 00:14:07;;;;;;;;;;;;;;;30.55;32.83;100962.19;5001091;28;99349;-85
2021/06/19 00:16:33;;;;;;;;;;;;;;;30.36;33.56;100960.72;4995469;28;97269;-84
2021/06/19 00:19:01;;;;;;;;;;;;;;;30.40;32.94;100962.06;5000137;28;97757;-85
2021/06/19 00:21:29;;;;;;;;;;;;;;;30.25;32.39;100959.25;4993082;28;99965;-84
2021/06/19 00:23:56;;;;;;;;;;;;;;;29.97;32.67;100964.28;4998119;28;97650;-83
2021/06/19 00:26:22;;;;;;;;;;;;;;;29.98;32.96;100965.13;4991976;28;97031;-83
2021/06/19 00:28:49;;;;;;;;;;;;;;;30.02;33.09;100966.47;4981821;28;98728;-83
2021/06/19 00:31:16;;;;;;;;;;;;;;;30.29;32.20;100962.44;4979470;28;101047;-84
2021/06/19 00:33:42;;;;;;;;;;;;;;;30.24;32.60;100965.72;4981396;28;101061;-84
2021/06/19 00:36:09;;;;;;;;;;;;;;;30.52;31.80;100960.69;4985161;28;96774;-85
2021/06/19 00:38:36;;;;;;;;;;;;;;;30.11;32.60;100962.69;4995906;28;97356;-85
2021/06/19 00:41:03;;;;;;;;;;;;;;;29.59;33.96;100959.56;5000208;28;100340;-83
2021/06/19 00:43:29;;;;;;;;;;;;;;;29.82;33.80;100967.84;4994299;28;101749;-84
2021/06/19 00:45:56;;;;;;;;;;;;;;;29.59;34.22;100952.25;4991406;28;96900;-84
2021/06/19 00:48:25;;;;;;;;;;;;;;;29.89;34.20;100952.50;4991262;28;96882;-84
2021/06/19 00:50:52;;;;;;;;;;;;;;;29.88;33.76;100950.81;4995129;28;100177;-83
2021/06/19 00:53:18;;;;;;;;;;;;;;;29.61;34.18;100947.47;4993511;28;97730;-84
2021/06/19 00:55:46;;;;;;;;;;;;;;;29.75;33.96;100953.22;4983665;28;96993;-84
2021/06/19 00:58:13;;;;;;;;;;;;;;;29.67;34.10;100954.94;4985476;28;97609;-84
2021/06/19 01:00:40;;;;;;;;;;;;;;;29.47;34.52;100953.59;4990588;28;97664;-86
2021/06/19 01:03:06;;;;;;;;;;;;;;;29.37;35.06;100949.38;4989464;28;98104;-84
2021/06/19 01:05:33;;;;;;;;;;;;;;;29.90;34.05;100954.22;4990496;28;97667;-84
2021/06/19 01:08:00;;;;;;;;;;;;;;;29.91;33.56;100950.47;4992553;28;96835;-84
2021/06/19 01:10:27;;;;;;;;;;;;;;;29.65;34.16;100950.69;4985408;28;98230;-83
2021/06/19 01:12:55;;;;;;;;;;;;;;;29.12;34.94;100948.50;4994832;28;98079;-84
2021/06/19 01:15:21;;;;;;;;;;;;;;;29.76;34.11;100946.75;4986584;28;96836;-84
2021/06/19 01:17:48;;;;;;;;;;;;;;;29.43;34.43;100944.09;4998413;28;96906;-85
2021/06/19 01:20:15;;;;;;;;;;;;;;;29.54;34.30;100930.09;5004201;28;97420;-84
2021/06/19 01:22:43;;;;;;;;;;;;;;;29.51;34.08;100930.47;4998667;28;98031;-83
2021/06/19 01:25:15;;;;;;;;;;;;;;;29.65;34.13;100929.78;4989648;28;96925;-83
2021/06/19 01:27:42;;;;;;;;;;;;;;;29.77;33.58;100940.28;5001489;28;96736;-86
2021/06/19 01:30:10;;;;;;;;;;;;;;;29.83;33.78;100937.72;4998066;28;96944;-84
2021/06/19 01:32:37;;;;;;;;;;;;;;;29.40;34.48;100928.13;5007368;28;98130;-84
2021/06/19 01:35:05;;;;;;;;;;;;;;;29.61;34.04;100938.44;5009350;28;96813;-83
2021/06/19 01:37:32;;;;;;;;;;;;;;;29.55;34.02;100929.09;5003256;28;95988;-84
2021/06/19 01:40:06;;;;;;;;;;;;;;;29.64;34.01;100929.94;5016318;28;98172;-84
2021/06/19 01:42:34;;;;;;;;;;;;;;;29.45;34.13;100927.59;5009470;28;99933;-85
2021/06/19 01:45:00;;;;;;;;;;;;;;;29.10;34.95;100932.31;5006058;28;96886;-83
2021/06/19 01:47:27;;;;;;;;;;;;;;;29.00;35.85;100938.97;5007820;28;96583;-84
2021/06/19 01:49:54;;;;;;;;;;;;;;;29.05;36.72;100926.56;5005120;28;99549;-85
2021/06/19 01:52:21;;;;;;;;;;;;;;;29.27;36.17;100930.47;4997637;28;99368;-85
2021/06/19 01:54:48;;;;;;;;;;;;;;;28.85;36.56;100936.91;5001580;28;96580;-84
2021/06/19 01:57:15;;;;;;;;;;;;;;;28.79;37.05;100940.31;5000882;28;96788;-83
2021/06/19 01:59:46;;;;;;;;;;;;;;;29.01;36.55;100930.66;5008174;28;98029;-84
2021/06/19 02:02:13;;;;;;;;;;;;;;;29.28;35.44;100926.69;4994235;28;97544;-85
2021/06/19 02:04:39;;;;;;;;;;;;;;;28.85;36.25;100936.06;4989876;28;97174;-83
2021/06/19 02:07:06;;;;;;;;;;;;;;;28.71;36.57;100929.38;5004526;28;96864;-84
2021/06/19 02:09:32;;;;;;;;;;;;;;;29.07;36.42;100929.13;5003242;28;96983;-84
2021/06/19 02:11:58;;;;;;;;;;;;;;;29.11;35.70;100925.03;5002545;28;96857;-84
2021/06/19 02:14:25;;;;;;;;;;;;;;;29.38;35.35;100921.97;5005746;28;97077;-84
2021/06/19 02:16:52;;;;;;;;;;;;;;;28.96;35.88;100921.25;4991804;28;96644;-83
2021/06/19 02:19:19;;;;;;;;;;;;;;;29.41;35.19;100924.34;5005426;28;99063;-84
2021/06/19 02:21:45;;;;;;;;;;;;;;;29.31;34.96;100923.66;4991618;28;97894;-85
2021/06/19 02:24:11;;;;;;;;;;;;;;;29.22;34.88;100922.78;4998060;28;96845;-84
2021/06/19 02:26:38;;;;;;;;;;;;;;;28.94;35.51;100921.47;5008835;28;97031;-83
2021/06/19 02:29:04;;;;;;;;;;;;;;;28.91;35.55;100925.34;5003857;28;100494;-83
2021/06/19 02:31:31;;;;;;;;;;;;;;;28.86;35.91;100926.88;4986281;28;98054;-82
2021/06/19 02:33:58;;;;;;;;;;;;;;;28.70;36.77;100921.38;5003041;28;96835;-83
2021/06/19 02:36:25;;;;;;;;;;;;;;;28.80;36.51;100928.41;4999217;28;97630;-84
2021/06/19 02:38:51;;;;;;;;;;;;;;;28.59;37.05;100924.41;4993766;28;98750;-84
2021/06/19 02:41:18;;;;;;;;;;;;;;;29.33;35.69;100929.78;4990561;28;101018;-84
2021/06/19 02:43:44;;;;;;;;;;;;;;;28.92;36.23;100920.75;4984991;28;96880;-83
2021/06/19 02:46:11;;;;;;;;;;;;;;;28.62;36.90;100919.47;4994030;28;96887;-85
2021/06/19 02:48:37;;;;;;;;;;;;;;;29.01;36.12;100924.34;4999575;28;101355;-83
2021/06/19 02:51:05;;;;;;;;;;;;;;;28.90;35.80;100928.22;4987200;28;98124;-85
2021/06/19 02:53:32;;;;;;;;;;;;;;;28.67;36.25;100914.41;5005910;28;96715;-83
2021/06/19 02:55:58;;;;;;;;;;;;;;;29.00;35.68;100917.19;4997129;28;96666;-84
2021/06/19 02:58:24;;;;;;;;;;;;;;;28.57;36.77;100923.72;4988325;28;101016;-83
2021/06/19 03:00:51;;;;;;;;;;;;;;;28.60;37.17;100924.25;4991060;28;99214;-83
2021/06/19 03:03:17;;;;;;;;;;;;;;;28.37;37.69;100929.44;4989685;28;97291;-84
2021/06/19 03:05:44;;;;;;;;;;;;;;;28.60;37.48;100937.84;4988516;28;97171;-83
2021/06/19 03:08:11;;;;;;;;;;;;;;;28.80;36.72;100939.28;5011919;28;100623;-84
2021/06/19 03:10:39;;;;;;;;;;;;;;;28.67;37.12;100932.59;4985453;28;100932;-84
2021/06/19 03:13:06;;;;;;;;;;;;;;;28.71;37.27;100940.25;5000286;28;96757;-82
2021/06/19 03:15:33;;;;;;;;;;;;;;;28.89;36.95;100926.53;4986655;28;96791;-83
2021/06/19 03:17:59;;;;;;;;;;;;;;;28.95;36.93;100936.72;4983243;28;101133;-84
2021/06/19 03:20:26;;;;;;;;;;;;;;;28.97;36.37;100934.69;4993875;28;99387;-84
2021/06/19 03:22:54;;;;;;;;;;;;;;;28.84;36.71;100937.06;4982462;28;98639;-84
2021/06/19 03:25:23;;;;;;;;;;;;;;;28.64;37.30;100927.47;5004657;28;97150;-84
2021/06/19 03:27:49;;;;;;;;;;;;;;;28.87;36.74;100924.00;4995567;28;98418;-83
2021/06/19 03:30:17;;;;;;;;;;;;;;;28.80;37.19;100935.72;4993024;28;99852;-83
2021/06/19 03:32:43;;;;;;;;;;;;;;;28.55;37.73;100932.06;4983111;28;97067;-84
2021/06/19 03:35:10;;;;;;;;;;;;;;;28.40;38.35;100931.00;4987459;28;98182;-83
2021/06/19 03:37:37;;;;;;;;;;;;;;;28.46;38.03;100933.06;4980439;28;99729;-85
2021/06/19 03:40:04;;;;;;;;;;;;;;;28.80;37.54;100933.84;4983564;28;99899;-84
2021/06/19 03:42:32;;;;;;;;;;;;;;;29.02;36.99;100936.91;4983997;28;96902;-84
2021/06/19 03:44:58;;;;;;;;;;;;;;;28.81;37.27;100941.00;4982013;28;97226;-83
2021/06/19 03:47:25;;;;;;;;;;;;;;;28.91;37.11;100944.38;4989722;28;97108;-85
2021/06/19 03:49:51;;;;;;;;;;;;;;;29.05;37.15;100937.44;4982171;28;97606;-84
2021/06/19 03:52:18;;;;;;;;;;;;;;;28.79;37.50;100934.84;4988322;28;96746;-84
2021/06/19 03:54:44;;;;;;;;;;;;;;;29.37;36.20;100942.06;4987017;28;96826;-84
2021/06/19 03:57:13;;;;;;;;;;;;;;;29.16;36.36;100947.13;4995965;28;97971;-83
2021/06/19 03:59:41;;;;;;;;;;;;;;;29.06;36.38;100946.44;4994176;28;99946;-85
2021/06/19 04:02:07;;;;;;;;;;;;;;;29.17;35.91;100944.22;4994375;28;96807;-84
2021/06/19 04:04:36;;;;;;;;;;;;;;;29.21;35.92;100948.31;4995582;28;96887;-83
2021/06/19 04:07:03;;;;;;;;;;;;;;;29.48;35.68;100951.72;4985442;28;98906;-84
2021/06/19 04:09:29;;;;;;;;;;;;;;;29.53;35.29;100946.63;4989900;28;97971;-84
2021/06/19 04:11:56;;;;;;;;;;;;;;;29.46;35.32;100941.03;4982723;28;97795;-85
2021/06/19 04:14:22;;;;;;;;;;;;;;;29.82;34.75;100936.00;4985292;28;96810;-84
2021/06/19 04:16:50;;;;;;;;;;;;;;;29.82;34.97;100940.59;4986936;28;98098;-84
2021/06/19 04:19:16;;;;;;;;;;;;;;;30.00;34.51;100944.84;4975789;28;99966;-84
2021/06/19 04:21:43;;;;;;;;;;;;;;;29.93;34.61;100943.00;4981407;28;96882;-83
2021/06/19 04:24:09;;;;;;;;;;;;;;;29.47;35.53;100934.53;4976600;28;96803;-84
2021/06/19 04:26:36;;;;;;;;;;;;;;;29.97;34.90;100938.91;5001309;28;98176;-84
2021/06/19 04:29:02;;;;;;;;;;;;;;;29.86;34.93;100937.38;4992169;28;98666;-84
2021/06/19 04:31:31;;;;;;;;;;;;;;;30.06;34.99;100938.69;5005893;28;96631;-84
2021/06/19 04:33:59;;;;;;;;;;;;;;;30.09;34.49;100942.94;4978046;28;97410;-84
2021/06/19 04:36:26;;;;;;;;;;;;;;;30.10;34.36;100939.19;4977326;28;101206;-85
2021/06/19 04:38:52;;;;;;;;;;;;;;;29.53;35.00;100933.88;4989473;28;98029;-82
2021/06/19 04:41:26;;;;;;;;;;;;;;;30.02;34.54;100950.13;4986037;28;96974;-85
2021/06/19 04:44:06;;;;;;;;;;;;;;;30.28;33.90;100945.25;4994152;28;96885;-84
2021/06/19 04:46:32;;;;;;;;;;;;;;;30.35;34.26;100943.50;4984624;28;98250;-83
2021/06/19 04:49:00;;;;;;;;;;;;;;;30.35;34.20;100953.56;4983465;28;96917;-84
2021/06/19 04:51:27;;;;;;;;;;;;;;;30.42;33.88;100947.22;4981546;28;96736;-84
2021/06/19 04:53:53;;;;;;;;;;;;;;;30.39;33.90;100947.56;4986656;28;98584;-83
2021/06/19 04:56:20;;;;;;;;;;;;;;;30.46;33.89;100948.56;4990236;28;97271;-83
2021/06/19 04:58:46;;;;;;;;;;;;;;;30.49;33.81;100947.41;4980965;28;99277;-84
2021/06/19 05:01:13;;;;;;;;;;;;;;;30.91;33.20;100955.16;4977766;28;98705;-83
2021/06/19 05:03:39;;;;;;;;;;;;;;;30.98;33.38;100950.69;4996512;28;96899;-83
2021/06/19 05:06:07;;;;;;;;;;;;;;;30.81;33.88;100946.34;4996328;28;98378;-84
2021/06/19 05:08:34;;;;;;;;;;;;;;;30.86;33.67;100946.66;4981356;28;101017;-84
2021/06/19 05:11:00;;;;;;;;;;;;;;;30.58;33.83;100950.94;4990241;28;97318;-83
2021/06/19 05:13:26;;;;;;;;;;;;;;;30.77;33.25;100947.75;4977317;28;96961;-85
2021/06/19 05:15:53;;;;;;;;;;;;;;;31.10;32.99;100943.78;4982183;28;97850;-83
2021/06/19 05:18:19;;;;;;;;;;;;;;;30.94;33.27;100943.88;4985431;28;99138;-84
2021/06/19 05:20:45;;;;;;;;;;;;;;;31.16;32.72;100939.47;4979898;28;97011;-83
2021/06/19 05:23:13;;;;;;;;;;;;;;;31.03;32.98;100944.66;4980992;28;96781;-84
2021/06/19 05:25:39;;;;;;;;;;;;;;;31.12;32.89;100947.16;4989417;28;98329;-84
2021/06/19 05:28:06;;;;;;;;;;;;;;;31.22;32.76;100947.78;4978030;28;101344;-85
2021/06/19 05:30:33;;;;;;;;;;;;;;;31.61;32.53;100953.06;4979960;28;96744;-84
2021/06/19 05:32:59;;;;;;;;;;;;;;;31.64;32.26;100957.31;4989417;28;96835;-85
2021/06/19 05:35:26;;;;;;;;;;;;;;;31.56;32.13;100952.75;4995067;28;99215;-84
2021/06/19 05:37:52;;;;;;;;;;;;;;;31.47;32.12;100955.75;4977581;28;98734;-84
2021/06/19 05:40:20;;;;;;;;;;;;;;;31.61;32.48;100954.97;4981732;28;97026;-83
2021/06/19 05:42:46;;;;;;;;;;;;;;;31.74;32.20;100957.91;4996059;28;96819;-83
2021/06/19 05:45:13;;;;;;;;;;;;;;;31.90;32.13;100956.88;4984736;28;100701;-83
2021/06/19 05:47:39;;;;;;;;;;;;;;;31.87;31.83;100946.31;4987790;28;96927;-83
2021/06/19 05:50:06;;;;;;;;;;;;;;;31.85;31.92;100942.91;4991411;28;97688;-83
2021/06/19 05:52:33;;;;;;;;;;;;;;;32.39;31.16;100941.59;4984056;28;96794;-84
2021/06/19 05:55:00;;;;;;;;;;;;;;;32.47;30.96;100943.38;4989406;28;99571;-84
2021/06/19 05:57:28;;;;;;;;;;;;;;;32.17;31.37;100939.81;4983771;28;98146;-83
2021/06/19 05:59:54;;;;;;;;;;;;;;;31.97;31.76;100941.41;4980464;28;96821;-86
2021/06/19 06:02:21;;;;;;;;;;;;;;;32.19;31.24;100940.50;4987755;28;96849;-83
2021/06/19 06:04:47;;;;;;;;;;;;;;;32.60;30.91;100953.63;4989006;28;98020;-85
2021/06/19 06:07:14;;;;;;;;;;;;;;;32.83;30.79;100949.72;4988285;28;99407;-85
2021/06/19 06:09:40;;;;;;;;;;;;;;;32.65;30.97;100954.75;4980939;28;96898;-83
2021/06/19 06:12:07;;;;;;;;;;;;;;;32.80;30.84;100947.38;4981805;28;96776;-83
2021/06/19 06:14:35;;;;;;;;;;;;;;;32.71;30.67;100948.53;5007337;28;101309;-86
2021/06/19 06:17:02;;;;;;;;;;;;;;;32.93;30.54;100945.81;4991463;28;101967;-85
2021/06/19 06:19:28;;;;;;;;;;;;;;;32.95;30.40;100951.94;4984418;28;96721;-84
2021/06/19 06:21:55;;;;;;;;;;;;;;;32.66;30.93;100956.44;4979807;28;97050;-84
2021/06/19 06:24:22;;;;;;;;;;;;;;;32.92;30.33;100957.81;4984507;28;98051;-85
2021/06/19 06:26:53;;;;;;;;;;;;;;;33.47;29.77;100949.72;4978805;28;100900;-84
2021/06/19 06:32:07;;;;;;;;;;;;;;;33.20;30.16;100951.38;4998174;28;97443;-85
2021/06/19 06:34:36;;;;;;;;;;;;;;;33.41;29.68;100942.28;4999755;28;99586;-84
2021/06/19 06:37:05;;;;;;;;;;;;;;;33.73;29.03;100957.31;4993659;28;100254;-83
2021/06/19 06:39:33;;;;;;;;;;;;;;;34.03;28.70;100962.56;5000978;28;97626;-85
2021/06/19 06:42:00;;;;;;;;;;;;;;;34.87;27.46;100976.91;5007704;28;96878;-84
2021/06/19 06:44:28;;;;;;;;;;;;;;;34.68;27.75;100960.16;5003648;28;99499;-86
2021/06/19 06:46:54;;;;;;;;;;;;;;;34.58;28.00;100967.09;5006390;28;98842;-85
2021/06/19 06:49:23;;;;;;;;;;;;;;;34.73;28.02;100965.03;4987533;28;96832;-86
2021/06/19 06:51:49;;;;;;;;;;;;;;;35.21;26.83;100967.72;4986034;28;96918;-84
2021/06/19 06:54:16;;;;;;;;;;;;;;;35.08;27.26;100958.38;4983017;28;100970;-84
2021/06/19 06:56:43;;;;;;;;;;;;;;;34.72;27.72;100963.38;4985544;28;102262;-85
2021/06/19 06:59:17;;;;;;;;;;;;;;;34.71;27.85;100961.69;4980092;28;97394;-82
2021/06/19 07:01:44;;;;;;;;;;;;;;;34.85;27.69;100973.53;4982688;28;97245;-84
2021/06/19 07:04:11;;;;;;;;;;;;;;;34.68;27.86;100973.03;4991701;28;97319;-84
2021/06/19 07:06:39;;;;;;;;;;;;;;;34.49;27.99;100965.56;4996415;28;97561;-86
2021/06/19 07:09:06;;;;;;;;;;;;;;;34.51;28.18;100961.56;4993156;28;97764;-85
2021/06/19 07:11:32;;;;;;;;;;;;;;;34.66;28.02;100966.88;5002426;28;96869;-84
2021/06/19 07:13:58;;;;;;;;;;;;;;;34.73;27.73;100960.41;4987065;28;101494;-87
2021/06/19 07:16:25;;;;;;;;;;;;;;;34.50;28.13;100968.09;4996131;28;99494;-83
2021/06/19 07:18:51;;;;;;;;;;;;;;;34.65;27.91;100956.97;4996374;28;96837;-84
2021/06/19 07:21:18;;;;;;;;;;;;;;;34.90;27.92;100949.03;5015585;28;96938;-82
2021/06/19 07:23:46;;;;;;;;;;;;;;;35.02;28.00;100953.72;4999740;28;99435;-86
2021/06/19 07:26:13;;;;;;;;;;;;;;;35.03;27.11;100955.41;4983603;28;97694;-81
2021/06/19 07:28:39;;;;;;;;;;;;;;;34.89;27.90;100958.34;4986179;28;96938;-82
2021/06/19 07:31:06;;;;;;;;;;;;;;;34.84;27.82;100956.22;4997188;28;96893;-84
2021/06/19 07:33:32;;;;;;;;;;;;;;;35.13;27.15;100949.50;4993871;28;97883;-83
2021/06/19 07:36:00;;;;;;;;;;;;;;;35.36;27.09;100962.88;4999514;28;101116;-82
2021/06/19 07:38:28;;;;;;;;;;;;;;;35.19;27.13;100955.00;4985295;28;97088;-83
2021/06/19 07:40:56;;;;;;;;;;;;;;;36.09;25.82;100952.66;4978053;28;98735;-84
2021/06/19 07:43:22;;;;;;;;;;;;;;;35.69;26.87;100950.00;4979740;28;99552;-83
2021/06/19 07:45:49;;;;;;;;;;;;;;;35.65;27.04;100956.91;4979457;28;99026;-83
2021/06/19 07:48:15;;;;;;;;;;;;;;;35.85;26.73;100952.25;4981921;28;97704;-82
2021/06/19 07:50:42;;;;;;;;;;;;;;;35.84;26.66;100947.00;4990010;28;97096;-83
2021/06/19 07:53:10;;;;;;;;;;;;;;;35.97;26.51;100947.78;4997635;28;101594;-82
2021/06/19 07:55:36;;;;;;;;;;;;;;;35.63;27.04;100956.31;4994295;28;96606;-84
2021/06/19 07:58:04;;;;;;;;;;;;;;;36.02;26.53;100949.91;4991839;28;96723;-80
2021/06/19 08:00:33;;;;;;;;;;;;;;;35.81;26.85;100951.03;4988492;28;98498;-82
2021/06/19 08:02:59;;;;;;;;;;;;;;;36.07;26.57;100955.59;4992613;28;98994;-81
2021/06/19 08:05:26;;;;;;;;;;;;;;;36.30;26.24;100952.41;4993619;28;99279;-81
2021/06/19 08:07:53;;;;;;;;;;;;;;;36.20;25.94;100954.75;4991996;28;96922;-81
2021/06/19 08:10:19;;;;;;;;;;;;;;;36.33;25.80;100954.69;4980522;28;97156;-81
2021/06/19 08:12:46;;;;;;;;;;;;;;;36.31;25.57;100957.66;4995504;28;98161;-82
2021/06/19 08:15:17;;;;;;;;;;;;;;;36.02;25.68;100955.41;4990198;28;97033;-83
2021/06/19 08:17:45;;;;;;;;;;;;;;;36.30;25.73;100958.72;4996324;28;96811;-83
2021/06/19 08:20:15;;;;;;;;;;;;;;;36.34;26.05;100960.00;5001588;28;96990;-85
2021/06/19 08:22:42;;;;;;;;;;;;;;;36.06;25.86;100950.31;4987430;28;97993;-82
2021/06/19 08:25:09;;;;;;;;;;;;;;;36.43;25.75;100957.81;4992280;28;100139;-81
2021/06/19 08:27:35;;;;;;;;;;;;;;;36.68;25.36;100955.22;5009992;28;96607;-83
2021/06/19 08:30:02;;;;;;;;;;;;;;;35.95;26.05;100957.34;5008039;28;96621;-81
2021/06/19 08:32:29;;;;;;;;;;;;;;;36.11;26.23;100959.59;5002364;28;97838;-83
2021/06/19 08:34:56;;;;;;;;;;;;;;;36.56;25.60;100952.25;5002736;28;97738;-83
2021/06/19 08:37:22;;;;;;;;;;;;;;;36.82;25.71;100950.47;5000655;28;96648;-83
2021/06/19 08:39:49;;;;;;;;;;;;;;;36.81;25.46;100955.13;5009060;28;96869;-83
2021/06/19 08:42:15;;;;;;;;;;;;;;;36.67;25.64;100948.84;5004910;28;98153;-83
2021/06/19 08:44:43;;;;;;;;;;;;;;;36.63;25.18;100944.81;5001388;28;97765;-81
2021/06/19 08:47:10;;;;;;;;;;;;;;;36.74;25.31;100948.81;4996794;28;96505;-82
2021/06/19 08:49:38;;;;;;;;;;;;;;;36.84;24.80;100948.31;4993984;28;96604;-82
2021/06/19 08:52:05;;;;;;;;;;;;;;;37.02;24.60;100945.69;4988113;28;98589;-82
2021/06/19 08:54:38;;;;;;;;;;;;;;;37.04;24.90;100943.53;4980384;28;97983;-81
2021/06/19 08:57:05;;;;;;;;;;;;;;;36.98;24.54;100952.69;4978633;28;97146;-82
2021/06/19 08:59:32;;;;;;;;;;;;;;;37.12;24.15;100946.06;4978724;28;96865;-81
2021/06/19 09:01:58;;;;;;;;;;;;;;;36.56;24.87;100946.75;4977338;28;98998;-81
2021/06/19 09:04:24;;;;;;;;;;;;;;;37.06;24.67;100946.91;4985840;28;97676;-82
2021/06/19 09:06:53;;;;;;;;;;;;;;;37.26;24.30;100944.88;4992534;28;96799;-83
2021/06/19 09:09:20;;;;;;;;;;;;;;;36.91;24.61;100951.88;4991078;28;96989;-84
2021/06/19 09:11:48;;;;;;;;;;;;;;;37.08;24.39;100939.28;4985061;28;120634;-82
2021/06/19 09:14:15;;;;;;;;;;;;;;;37.26;23.76;100933.88;4989185;28;98206;-82
2021/06/19 09:16:43;;;;;;;;;;;;;;;37.28;23.79;100940.00;4993308;28;96708;-84
2021/06/19 09:19:24;;;;;;;;;;;;;;;37.54;23.24;100944.44;5002621;28;97067;-81
2021/06/19 09:22:08;;;;;;;;;;;;;;;37.28;22.46;100944.66;5005825;28;100338;-82
2021/06/19 09:24:41;;;;;;;;;;;;;;;37.57;20.94;100943.13;4982929;28;99442;-83
2021/06/19 09:27:27;;;;;;;;;;;;;;;37.49;21.26;100944.25;4979146;28;96995;-82
2021/06/19 09:30:05;;;;;;;;;;;;;;;36.28;22.61;100936.09;4983046;28;96659;-83
2021/06/19 09:32:32;;;;;;;;;;;;;;;36.99;21.57;100941.44;4979754;28;100059;-83
2021/06/19 09:35:10;;;;;;;;;;;;;;;37.29;21.47;100941.66;4993176;28;99331;-85
2021/06/19 09:37:38;;;;;;;;;;;;;;;37.62;21.69;100946.06;4988623;28;96699;-83
2021/06/19 09:40:19;;;;;;;;;;;;;;;37.64;21.56;100938.41;4993014;28;96844;-84
2021/06/19 09:42:45;;;;;;;;;;;;;;;37.59;21.57;100938.25;4988911;28;99396;-82
2021/06/19 09:45:17;;;;;;;;;;;;;;;37.79;20.80;100942.50;4992002;28;99364;-82
2021/06/19 09:47:45;;;;;;;;;;;;;;;37.89;20.47;100933.69;4979045;28;96774;-82
2021/06/19 09:50:12;;;;;;;;;;;;;;;37.94;20.59;100944.91;4990108;28;97445;-82
2021/06/19 09:52:40;;;;;;;;;;;;;;;37.94;20.01;100928.38;4996371;28;97818;-82
2021/06/19 09:55:11;;;;;;;;;;;;;;;37.63;20.48;100936.72;4999209;28;100699;-84
2021/06/19 09:57:39;;;;;;;;;;;;;;;37.47;20.77;100933.47;4988936;28;96873;-84
2021/06/19 10:00:06;;;;;;;;;;;;;;;37.28;21.04;100922.63;4994844;28;96555;-84
2021/06/19 10:02:34;;;;;;;;;;;;;;;37.82;20.44;100927.41;4995136;28;98301;-82
2021/06/19 10:05:03;;;;;;;;;;;;;;;38.12;18.54;100924.78;5001201;28;96978;-81
2021/06/19 10:07:32;;;;;;;;;;;;;;;37.79;19.18;100927.88;4991330;28;97189;-82
2021/06/19 10:10:01;;;;;;;;;;;;;;;38.24;19.08;100922.94;5006361;28;96894;-82
2021/06/19 10:15:18;;;;;;;;;;;;;;;38.11;18.67;100925.84;4998713;28;98871;-83
2021/06/19 10:17:46;;;;;;;;;;;;;;;38.34;18.87;100920.44;4997088;28;96819;-82
2021/06/19 10:20:14;;;;;;;;;;;;;;;38.28;19.39;100913.94;4996540;28;96919;-83
2021/06/19 10:22:42;;;;;;;;;;;;;;;37.76;19.60;100909.03;4995996;28;99235;-83
2021/06/19 10:25:13;;;;;;;;;;;;;;;37.90;19.68;100905.06;4997879;28;101689;-81
2021/06/19 10:27:43;;;;;;;;;;;;;;;37.47;20.35;100900.41;4988159;28;96983;-82
2021/06/19 10:30:11;;;;;;;;;;;;;;;37.95;19.92;100907.94;4986300;28;97061;-82
2021/06/19 10:32:38;;;;;;;;;;;;;;;38.18;19.67;100913.66;4984701;28;101198;-81
2021/06/19 10:35:05;;;;;;;;;;;;;;;38.14;19.64;100912.41;4994302;28;100794;-83
2021/06/19 10:37:31;;;;;;;;;;;;;;;38.09;19.71;100908.69;4994144;28;97138;-83
2021/06/19 10:39:59;;;;;;;;;;;;;;;37.96;20.03;100909.66;4988103;28;96843;-82
2021/06/19 10:42:31;;;;;;;;;;;;;;;38.29;19.52;100901.00;4985160;28;99221;-81
2021/06/19 10:45:02;;;;;;;;;;;;;;;38.08;19.77;100905.06;5000530;28;99273;-82
2021/06/19 10:47:30;;;;;;;;;;;;;;;38.37;19.56;100902.59;5000053;28;96808;-81
2021/06/19 10:49:57;;;;;;;;;;;;;;;38.23;19.66;100894.50;4987353;28;97990;-83
2021/06/19 10:52:24;;;;;;;;;;;;;;;38.25;19.58;100897.88;4990179;28;98228;-83
2021/06/19 10:55:09;;;;;;;;;;;;;;;36.91;20.83;100888.53;4999431;28;101394;-82
2021/06/19 10:57:48;;;;;;;;;;;;;;;37.95;19.99;100896.06;4997529;28;97557;-82
2021/06/19 11:00:24;;;;;;;;;;;;;;;38.43;19.66;100894.22;4983927;28;96677;-83
2021/06/19 11:02:50;;;;;;;;;;;;;;;38.28;19.85;100896.53;4989981;28;97282;-82
2021/06/19 11:05:48;;;;;;;;;;;;;;;38.49;19.30;100886.94;4992527;28;99701;-82
2021/06/19 11:08:15;;;;;;;;;;;;;;;38.62;19.61;100882.09;4995148;28;96776;-83
2021/06/19 11:10:55;;;;;;;;;;;;;;;38.82;19.28;100887.31;4990757;28;97312;-83
2021/06/19 11:13:40;;;;;;;;;;;;;;;38.31;19.26;100887.81;4988034;28;99166;-83
2021/06/19 11:16:27;;;;;;;;;;;;;;;38.90;18.90;100886.97;4993319;28;98036;-83
2021/06/19 11:18:54;;;;;;;;;;;;;;;38.57;19.41;100894.91;4985408;28;97333;-82
2021/06/19 11:21:21;;;;;;;;;;;;;;;38.40;19.56;100893.84;4989958;28;97161;-83
2021/06/19 11:24:05;;;;;;;;;;;;;;;38.22;19.85;100886.44;4998625;28;98158;-83
2021/06/19 11:26:50;;;;;;;;;;;;;;;38.94;18.94;100888.19;4980130;28;99737;-83
2021/06/19 11:29:35;;;;;;;;;;;;;;;38.52;19.75;100876.31;4987828;28;96731;-83
2021/06/19 11:32:16;;;;;;;;;;;;;;;38.51;19.97;100876.53;4983725;28;96858;-83
2021/06/19 11:34:44;;;;;;;;;;;;;;;38.55;19.76;100875.81;4987404;28;99186;-83
2021/06/19 11:37:11;;;;;;;;;;;;;;;38.71;19.56;100874.31;4977651;28;99119;-84
2021/06/19 11:39:37;;;;;;;;;;;;;;;38.81;19.68;100859.91;4978052;28;97014;-82
2021/06/19 11:42:04;;;;;;;;;;;;;;;39.39;19.26;100860.88;4986450;28;98894;-81
2021/06/19 11:44:33;;;;;;;;;;;;;;;39.27;19.45;100872.97;4977670;28;99292;-83
2021/06/19 11:47:01;;;;;;;;;;;;;;;39.04;19.27;100862.75;4975916;28;97472;-83
2021/06/19 11:49:34;;;;;;;;;;;;;;;38.91;19.76;100868.47;4976869;28;97022;-82
2021/06/19 11:52:03;;;;;;;;;;;;;;;39.58;19.45;100869.06;4986305;28;96741;-84
2021/06/19 11:54:30;;;;;;;;;;;;;;;39.52;18.97;100858.97;4997414;28;97179;-83
2021/06/19 11:56:57;;;;;;;;;;;;;;;39.47;19.53;100856.91;4996978;28;101716;-83
2021/06/19 11:59:23;;;;;;;;;;;;;;;39.63;18.75;100860.88;4997222;28;96893;-82
2021/06/19 12:01:50;;;;;;;;;;;;;;;39.77;19.00;100856.75;4996843;28;96960;-83
2021/06/19 12:04:17;;;;;;;;;;;;;;;40.08;19.07;100856.34;4995953;28;98923;-81
2021/06/19 12:06:45;;;;;;;;;;;;;;;39.97;19.07;100856.38;4986760;28;98076;-82
2021/06/19 12:09:17;;;;;;;;;;;;;;;39.51;19.35;100855.34;4998506;28;96884;-82
2021/06/19 12:11:47;;;;;;;;;;;;;;;39.50;19.45;100852.81;4997983;28;97471;-83
2021/06/19 12:14:18;;;;;;;;;;;;;;;39.36;19.62;100853.06;4996360;28;98242;-83
2021/06/19 12:16:45;;;;;;;;;;;;;;;39.62;19.57;100848.97;4997730;28;98166;-82
2021/06/19 12:19:11;;;;;;;;;;;;;;;39.27;19.93;100853.63;4979476;28;96831;-82
2021/06/19 12:21:39;;;;;;;;;;;;;;;39.77;19.80;100848.47;4978119;28;97354;-83
2021/06/19 12:24:27;;;;;;;;;;;;;;;40.20;18.91;100848.00;4991636;28;98185;-82
2021/06/19 12:27:04;;;;;;;;;;;;;;;39.73;19.14;100842.56;4978082;28;99960;-82
2021/06/19 12:29:35;;;;;;;;;;;;;;;39.00;20.71;100834.75;4989062;28;96867;-82
2021/06/19 12:32:01;;;;;;;;;;;;;;;39.31;20.39;100841.03;4984578;28;96813;-81
2021/06/19 12:34:28;;;;;;;;;;;;;;;39.69;19.58;100838.63;4986296;28;99927;-82
2021/06/19 12:36:55;;;;;;;;;;;;;;;39.84;19.58;100835.38;4990172;28;100673;-83
2021/06/19 12:39:22;;;;;;;;;;;;;;;40.28;19.46;100838.50;4985947;28;97255;-81
2021/06/19 12:41:51;;;;;;;;;;;;;;;39.97;19.31;100832.31;4993698;28;96832;-84
2021/06/19 12:44:17;;;;;;;;;;;;;;;40.30;19.14;100826.09;5001188;28;96977;-82
2021/06/19 12:46:47;;;;;;;;;;;;;;;38.68;20.67;100827.81;4985394;28;99309;-83